sensor_id;sensor_type;location;lat;lon;timestamp;temperature;humidity
3406;DHT22;10008;48.682;9.016;2023-02-18T00:02:11;11.10;99.90
3406;DHT22;10008;48.682;9.016;2023-02-18T00:04:37;11.10;99.90
3406;DHT22;10008;48.682;9.016;2023-02-18T00:07:02;11.10;99.90
3406;DHT22;10008;48.682;9.016;2023-02-18T00:09:28;11.10;99.90
3406;DHT22;10008;48.682;9.016;2023-02-18T00:11:54;11.10;99.90
3406;DHT22;10008;48.682;9.016;2023-02-18T00:14:20;11.10;99.90
3406;DHT22;10008;48.682;9.016;2023-02-18T00:16:45;11.10;99.90
3406;DHT22;10008;48.682;9.016;2023-02-18T00:19:13;11.10;99.90
3406;DHT22;10008;48.682;9.016;2023-02-18T00:21:40;11.10;99.90
3406;DHT22;10008;48.682;9.016;2023-02-18T00:24:06;11.10;99.90
3406;DHT22;10008;48.682;9.016;2023-02-18T00:26:32;11.10;99.90
3406;DHT22;10008;48.682;9.016;2023-02-18T00:28:59;11.10;99.90
3406;DHT22;10008;48.682;9.016;2023-02-18T00:31:31;11.10;99.90
3406;DHT22;10008;48.682;9.016;2023-02-18T00:33:59;11.10;99.90
3406;DHT22;10008;48.682;9.016;2023-02-18T00:36:27;11.10;99.90
3406;DHT22;10008;48.682;9.016;2023-02-18T00:38:55;11.10;99.90
3406;DHT22;10008;48.682;9.016;2023-02-18T00:41:23;11.10;99.90
3406;DHT22;10008;48.682;9.016;2023-02-18T00:43:49;11.10;99.90
3406;DHT22;10008;48.682;9.016;2023-02-18T00:46:18;11.10;99.90
3406;DHT22;10008;48.682;9.016;2023-02-18T00:48:44;11.00;99.90
3406;DHT22;10008;48.682;9.016;2023-02-18T00:51:11;11.00;99.90
3406;DHT22;10008;48.682;9.016;2023-02-18T00:53:37;11.00;99.90
3406;DHT22;10008;48.682;9.016;2023-02-18T00:56:03;11.00;99.90
3406;DHT22;10008;48.682;9.016;2023-02-18T00:58:29;11.00;99.90
3406;DHT22;10008;48.682;9.016;2023-02-18T01:00:55;11.00;99.90
3406;DHT22;10008;48.682;9.016;2023-02-18T01:03:21;11.00;99.90
3406;DHT22;10008;48.682;9.016;2023-02-18T01:05:49;11.00;99.90
3406;DHT22;10008;48.682;9.016;2023-02-18T01:08:15;11.00;99.90
3406;DHT22;10008;48.682;9.016;2023-02-18T01:10:44;11.00;99.90
3406;DHT22;10008;48.682;9.016;2023-02-18T01:13:11;11.00;99.90
3406;DHT22;10008;48.682;9.016;2023-02-18T01:15:41;11.00;99.90
3406;DHT22;10008;48.682;9.016;2023-02-18T01:18:08;10.90;99.90
3406;DHT22;10008;48.682;9.016;2023-02-18T01:20:35;10.90;99.90
3406;DHT22;10008;48.682;9.016;2023-02-18T01:23:02;10.90;99.90
3406;DHT22;10008;48.682;9.016;2023-02-18T01:25:28;11.10;99.90
3406;DHT22;10008;48.682;9.016;2023-02-18T01:27:54;10.80;99.90
3406;DHT22;10008;48.682;9.016;2023-02-18T01:30:21;10.70;99.90
3406;DHT22;10008;48.682;9.016;2023-02-18T01:32:47;10.70;99.90
3406;DHT22;10008;48.682;9.016;2023-02-18T01:35:15;10.70;99.90
3406;DHT22;10008;48.682;9.016;2023-02-18T01:37:41;10.80;99.90
3406;DHT22;10008;48.682;9.016;2023-02-18T01:40:10;10.70;99.90
3406;DHT22;10008;48.682;9.016;2023-02-18T01:42:37;10.70;99.90
3406;DHT22;10008;48.682;9.016;2023-02-18T01:48:12;10.70;99.90
3406;DHT22;10008;48.682;9.016;2023-02-18T01:50:44;10.70;99.90
3406;DHT22;10008;48.682;9.016;2023-02-18T01:53:15;10.70;99.90
3406;DHT22;10008;48.682;9.016;2023-02-18T01:55:43;10.70;99.90
3406;DHT22;10008;48.682;9.016;2023-02-18T01:58:10;10.70;99.90
3406;DHT22;10008;48.682;9.016;2023-02-18T02:00:37;10.80;99.90
3406;DHT22;10008;48.682;9.016;2023-02-18T02:03:03;10.80;99.90
3406;DHT22;10008;48.682;9.016;2023-02-18T02:05:33;10.80;99.90
3406;DHT22;10008;48.682;9.016;2023-02-18T02:08:00;10.90;99.90
3406;DHT22;10008;48.682;9.016;2023-02-18T02:11:16;10.90;99.90
3406;DHT22;10008;48.682;9.016;2023-02-18T02:13:43;10.80;99.90
3406;DHT22;10008;48.682;9.016;2023-02-18T02:16:30;10.80;99.90
3406;DHT22;10008;48.682;9.016;2023-02-18T02:22:39;10.70;99.90
3406;DHT22;10008;48.682;9.016;2023-02-18T02:36:12;10.50;99.90
3406;DHT22;10008;48.682;9.016;2023-02-18T02:41:53;10.40;99.90
3406;DHT22;10008;48.682;9.016;2023-02-18T02:47:09;10.40;99.90
3406;DHT22;10008;48.682;9.016;2023-02-18T02:50:08;10.40;99.90
3406;DHT22;10008;48.682;9.016;2023-02-18T02:52:46;10.40;99.90
3406;DHT22;10008;48.682;9.016;2023-02-18T02:55:14;10.40;99.90
3406;DHT22;10008;48.682;9.016;2023-02-18T02:57:52;10.40;99.90
3406;DHT22;10008;48.682;9.016;2023-02-18T03:03:29;10.50;99.90
3406;DHT22;10008;48.682;9.016;2023-02-18T03:06:25;10.60;99.90
3406;DHT22;10008;48.682;9.016;2023-02-18T03:09:14;10.60;99.90
3406;DHT22;10008;48.682;9.016;2023-02-18T03:17:30;10.60;99.90
3406;DHT22;10008;48.682;9.016;2023-02-18T03:20:11;10.70;99.90
3406;DHT22;10008;48.682;9.016;2023-02-18T03:22:45;10.70;99.90
3406;DHT22;10008;48.682;9.016;2023-02-18T03:25:13;10.80;99.90
3406;DHT22;10008;48.682;9.016;2023-02-18T03:27:45;10.70;99.90
3406;DHT22;10008;48.682;9.016;2023-02-18T03:30:22;10.70;99.90
3406;DHT22;10008;48.682;9.016;2023-02-18T03:32:54;10.80;99.90
3406;DHT22;10008;48.682;9.016;2023-02-18T03:35:21;10.70;99.90
3406;DHT22;10008;48.682;9.016;2023-02-18T03:37:52;10.70;99.90
3406;DHT22;10008;48.682;9.016;2023-02-18T03:40:21;10.60;99.90
3406;DHT22;10008;48.682;9.016;2023-02-18T03:42:47;10.50;99.90
3406;DHT22;10008;48.682;9.016;2023-02-18T03:45:12;10.50;99.90
3406;DHT22;10008;48.682;9.016;2023-02-18T03:47:40;10.40;99.90
3406;DHT22;10008;48.682;9.016;2023-02-18T03:50:07;10.40;99.90
3406;DHT22;10008;48.682;9.016;2023-02-18T03:52:33;10.40;99.90
3406;DHT22;10008;48.682;9.016;2023-02-18T03:55:03;10.40;99.90
3406;DHT22;10008;48.682;9.016;2023-02-18T03:57:29;10.40;99.90
3406;DHT22;10008;48.682;9.016;2023-02-18T03:59:55;10.30;99.90
3406;DHT22;10008;48.682;9.016;2023-02-18T04:02:20;10.30;99.90
3406;DHT22;10008;48.682;9.016;2023-02-18T04:04:46;10.30;99.90
3406;DHT22;10008;48.682;9.016;2023-02-18T04:07:12;10.20;99.90
3406;DHT22;10008;48.682;9.016;2023-02-18T04:09:38;10.20;99.90
3406;DHT22;10008;48.682;9.016;2023-02-18T04:12:03;10.20;99.90
3406;DHT22;10008;48.682;9.016;2023-02-18T04:14:29;10.20;99.90
3406;DHT22;10008;48.682;9.016;2023-02-18T04:16:55;10.20;99.90
3406;DHT22;10008;48.682;9.016;2023-02-18T04:19:21;10.20;99.90
3406;DHT22;10008;48.682;9.016;2023-02-18T04:21:46;10.10;99.90
3406;DHT22;10008;48.682;9.016;2023-02-18T04:24:12;10.10;99.90
3406;DHT22;10008;48.682;9.016;2023-02-18T04:26:38;10.10;99.90
3406;DHT22;10008;48.682;9.016;2023-02-18T04:29:04;10.10;99.90
3406;DHT22;10008;48.682;9.016;2023-02-18T04:31:29;10.10;99.90
3406;DHT22;10008;48.682;9.016;2023-02-18T04:33:56;10.10;99.90
3406;DHT22;10008;48.682;9.016;2023-02-18T04:36:22;10.10;99.90
3406;DHT22;10008;48.682;9.016;2023-02-18T04:38:47;10.10;99.90
3406;DHT22;10008;48.682;9.016;2023-02-18T04:41:13;10.10;99.90
3406;DHT22;10008;48.682;9.016;2023-02-18T04:43:39;10.00;99.90
3406;DHT22;10008;48.682;9.016;2023-02-18T04:46:04;10.10;99.90
3406;DHT22;10008;48.682;9.016;2023-02-18T04:48:30;10.10;99.90
3406;DHT22;10008;48.682;9.016;2023-02-18T04:50:56;10.10;99.90
3406;DHT22;10008;48.682;9.016;2023-02-18T04:53:22;10.10;99.90
3406;DHT22;10008;48.682;9.016;2023-02-18T04:55:51;10.20;99.90
3406;DHT22;10008;48.682;9.016;2023-02-18T04:58:18;10.20;99.90
3406;DHT22;10008;48.682;9.016;2023-02-18T05:00:44;10.10;99.90
3406;DHT22;10008;48.682;9.016;2023-02-18T05:03:10;10.10;99.90
3406;DHT22;10008;48.682;9.016;2023-02-18T05:05:36;10.00;99.90
3406;DHT22;10008;48.682;9.016;2023-02-18T05:08:03;9.90;99.90
3406;DHT22;10008;48.682;9.016;2023-02-18T05:10:29;9.90;99.90
3406;DHT22;10008;48.682;9.016;2023-02-18T05:12:54;9.90;99.90
3406;DHT22;10008;48.682;9.016;2023-02-18T05:15:20;9.90;99.90
3406;DHT22;10008;48.682;9.016;2023-02-18T05:17:46;10.00;99.90
3406;DHT22;10008;48.682;9.016;2023-02-18T05:20:12;10.10;99.90
3406;DHT22;10008;48.682;9.016;2023-02-18T05:22:38;10.10;99.90
3406;DHT22;10008;48.682;9.016;2023-02-18T05:25:05;10.10;99.90
3406;DHT22;10008;48.682;9.016;2023-02-18T05:27:31;10.10;99.90
3406;DHT22;10008;48.682;9.016;2023-02-18T05:29:56;10.20;99.90
3406;DHT22;10008;48.682;9.016;2023-02-18T05:32:23;10.20;99.90
3406;DHT22;10008;48.682;9.016;2023-02-18T05:34:48;10.10;99.90
3406;DHT22;10008;48.682;9.016;2023-02-18T05:37:14;10.10;99.90
3406;DHT22;10008;48.682;9.016;2023-02-18T05:39:41;10.20;99.90
3406;DHT22;10008;48.682;9.016;2023-02-18T05:42:07;10.20;99.90
3406;DHT22;10008;48.682;9.016;2023-02-18T05:44:33;10.20;99.90
3406;DHT22;10008;48.682;9.016;2023-02-18T05:47:01;10.20;99.90
3406;DHT22;10008;48.682;9.016;2023-02-18T05:49:28;10.20;99.90
3406;DHT22;10008;48.682;9.016;2023-02-18T05:51:54;10.20;99.90
3406;DHT22;10008;48.682;9.016;2023-02-18T05:54:20;10.20;99.90
3406;DHT22;10008;48.682;9.016;2023-02-18T05:56:46;10.20;99.90
3406;DHT22;10008;48.682;9.016;2023-02-18T05:59:12;10.20;99.90
3406;DHT22;10008;48.682;9.016;2023-02-18T06:01:37;10.20;99.90
3406;DHT22;10008;48.682;9.016;2023-02-18T06:04:03;10.20;99.90
3406;DHT22;10008;48.682;9.016;2023-02-18T06:06:29;10.10;99.90
3406;DHT22;10008;48.682;9.016;2023-02-18T06:08:55;10.10;99.90
3406;DHT22;10008;48.682;9.016;2023-02-18T06:11:21;10.10;99.90
3406;DHT22;10008;48.682;9.016;2023-02-18T06:13:47;10.10;99.90
3406;DHT22;10008;48.682;9.016;2023-02-18T06:16:12;10.10;99.90
3406;DHT22;10008;48.682;9.016;2023-02-18T06:18:38;10.00;99.90
3406;DHT22;10008;48.682;9.016;2023-02-18T06:21:04;10.00;99.90
3406;DHT22;10008;48.682;9.016;2023-02-18T06:23:30;9.90;99.90
3406;DHT22;10008;48.682;9.016;2023-02-18T06:25:56;10.00;99.90
3406;DHT22;10008;48.682;9.016;2023-02-18T06:28:21;10.00;99.90
3406;DHT22;10008;48.682;9.016;2023-02-18T06:30:49;10.00;99.90
3406;DHT22;10008;48.682;9.016;2023-02-18T06:33:15;10.00;99.90
3406;DHT22;10008;48.682;9.016;2023-02-18T06:35:40;10.00;99.90
3406;DHT22;10008;48.682;9.016;2023-02-18T06:38:06;10.00;99.90
3406;DHT22;10008;48.682;9.016;2023-02-18T06:40:32;10.10;99.90
3406;DHT22;10008;48.682;9.016;2023-02-18T06:42:58;10.10;99.90
3406;DHT22;10008;48.682;9.016;2023-02-18T06:45:24;10.10;99.90
3406;DHT22;10008;48.682;9.016;2023-02-18T06:47:49;10.10;99.90
3406;DHT22;10008;48.682;9.016;2023-02-18T06:50:15;10.20;99.90
3406;DHT22;10008;48.682;9.016;2023-02-18T06:52:41;10.20;99.90
3406;DHT22;10008;48.682;9.016;2023-02-18T06:55:08;10.20;99.90
3406;DHT22;10008;48.682;9.016;2023-02-18T06:57:34;10.20;99.90
3406;DHT22;10008;48.682;9.016;2023-02-18T07:00:00;10.20;99.90
3406;DHT22;10008;48.682;9.016;2023-02-18T07:02:26;10.20;99.90
3406;DHT22;10008;48.682;9.016;2023-02-18T07:04:52;10.30;99.90
3406;DHT22;10008;48.682;9.016;2023-02-18T07:07:18;10.30;99.90
3406;DHT22;10008;48.682;9.016;2023-02-18T07:09:44;10.30;99.90
3406;DHT22;10008;48.682;9.016;2023-02-18T07:12:09;10.40;99.90
3406;DHT22;10008;48.682;9.016;2023-02-18T07:14:35;10.40;99.90
3406;DHT22;10008;48.682;9.016;2023-02-18T07:17:01;10.50;99.90
3406;DHT22;10008;48.682;9.016;2023-02-18T07:19:26;10.40;99.90
3406;DHT22;10008;48.682;9.016;2023-02-18T07:21:52;10.50;99.90
3406;DHT22;10008;48.682;9.016;2023-02-18T07:24:22;10.50;99.90
3406;DHT22;10008;48.682;9.016;2023-02-18T07:26:48;10.60;99.90
3406;DHT22;10008;48.682;9.016;2023-02-18T07:29:13;10.70;99.90
3406;DHT22;10008;48.682;9.016;2023-02-18T07:31:39;10.70;99.90
3406;DHT22;10008;48.682;9.016;2023-02-18T07:34:05;10.80;99.90
3406;DHT22;10008;48.682;9.016;2023-02-18T07:36:31;10.90;99.90
3406;DHT22;10008;48.682;9.016;2023-02-18T07:38:56;10.90;99.90
3406;DHT22;10008;48.682;9.016;2023-02-18T07:41:22;11.00;99.90
3406;DHT22;10008;48.682;9.016;2023-02-18T07:43:48;11.10;99.90
3406;DHT22;10008;48.682;9.016;2023-02-18T07:46:14;11.20;99.90
3406;DHT22;10008;48.682;9.016;2023-02-18T07:48:40;11.10;99.90
3406;DHT22;10008;48.682;9.016;2023-02-18T07:51:08;11.30;99.90
3406;DHT22;10008;48.682;9.016;2023-02-18T07:53:34;11.30;99.90
3406;DHT22;10008;48.682;9.016;2023-02-18T07:56:00;11.40;99.90
3406;DHT22;10008;48.682;9.016;2023-02-18T07:58:32;11.40;99.90
3406;DHT22;10008;48.682;9.016;2023-02-18T08:00:58;11.40;99.90
3406;DHT22;10008;48.682;9.016;2023-02-18T08:03:27;11.40;99.90
3406;DHT22;10008;48.682;9.016;2023-02-18T08:05:54;11.40;99.90
3406;DHT22;10008;48.682;9.016;2023-02-18T08:08:23;11.50;99.90
3406;DHT22;10008;48.682;9.016;2023-02-18T08:10:50;11.50;99.90
3406;DHT22;10008;48.682;9.016;2023-02-18T08:13:16;11.50;99.90
3406;DHT22;10008;48.682;9.016;2023-02-18T08:15:42;11.60;99.90
3406;DHT22;10008;48.682;9.016;2023-02-18T08:18:14;11.60;99.90
3406;DHT22;10008;48.682;9.016;2023-02-18T08:20:40;11.60;99.90
3406;DHT22;10008;48.682;9.016;2023-02-18T08:23:06;11.50;99.90
3406;DHT22;10008;48.682;9.016;2023-02-18T08:25:32;11.50;99.90
3406;DHT22;10008;48.682;9.016;2023-02-18T08:27:58;11.60;99.90
3406;DHT22;10008;48.682;9.016;2023-02-18T08:30:25;11.60;99.90
3406;DHT22;10008;48.682;9.016;2023-02-18T08:32:51;11.60;99.90
3406;DHT22;10008;48.682;9.016;2023-02-18T08:35:17;11.60;99.90
3406;DHT22;10008;48.682;9.016;2023-02-18T08:37:43;11.70;99.90
3406;DHT22;10008;48.682;9.016;2023-02-18T08:40:10;11.80;99.90
3406;DHT22;10008;48.682;9.016;2023-02-18T08:42:36;11.80;99.90
3406;DHT22;10008;48.682;9.016;2023-02-18T08:45:02;11.90;99.90
3406;DHT22;10008;48.682;9.016;2023-02-18T08:47:28;11.90;99.90
3406;DHT22;10008;48.682;9.016;2023-02-18T08:49:54;11.80;99.90
3406;DHT22;10008;48.682;9.016;2023-02-18T08:52:19;11.80;99.90
3406;DHT22;10008;48.682;9.016;2023-02-18T08:54:45;11.90;99.90
3406;DHT22;10008;48.682;9.016;2023-02-18T08:57:11;11.90;99.90
3406;DHT22;10008;48.682;9.016;2023-02-18T08:59:37;12.00;99.90
3406;DHT22;10008;48.682;9.016;2023-02-18T09:02:03;12.10;99.90
3406;DHT22;10008;48.682;9.016;2023-02-18T09:04:29;12.00;99.90
3406;DHT22;10008;48.682;9.016;2023-02-18T09:06:54;12.20;99.90
3406;DHT22;10008;48.682;9.016;2023-02-18T09:09:20;12.30;99.90
3406;DHT22;10008;48.682;9.016;2023-02-18T09:11:46;12.30;99.90
3406;DHT22;10008;48.682;9.016;2023-02-18T09:14:12;12.20;99.90
3406;DHT22;10008;48.682;9.016;2023-02-18T09:16:38;12.20;99.90
3406;DHT22;10008;48.682;9.016;2023-02-18T09:19:05;12.20;99.90
3406;DHT22;10008;48.682;9.016;2023-02-18T09:21:30;12.40;99.90
3406;DHT22;10008;48.682;9.016;2023-02-18T09:23:57;12.50;99.90
3406;DHT22;10008;48.682;9.016;2023-02-18T09:26:23;12.80;99.90
3406;DHT22;10008;48.682;9.016;2023-02-18T09:28:52;13.20;99.90
3406;DHT22;10008;48.682;9.016;2023-02-18T09:31:23;13.20;99.90
3406;DHT22;10008;48.682;9.016;2023-02-18T09:33:55;13.50;99.90
3406;DHT22;10008;48.682;9.016;2023-02-18T09:36:21;13.40;99.90
3406;DHT22;10008;48.682;9.016;2023-02-18T09:38:48;13.20;99.90
3406;DHT22;10008;48.682;9.016;2023-02-18T09:43:56;13.10;99.90
3406;DHT22;10008;48.682;9.016;2023-02-18T09:46:36;13.00;99.90
3406;DHT22;10008;48.682;9.016;2023-02-18T09:49:06;13.00;99.90
3406;DHT22;10008;48.682;9.016;2023-02-18T09:51:33;12.90;99.90
3406;DHT22;10008;48.682;9.016;2023-02-18T09:53:59;12.90;99.90
3406;DHT22;10008;48.682;9.016;2023-02-18T09:56:29;13.00;99.90
3406;DHT22;10008;48.682;9.016;2023-02-18T09:58:57;12.90;99.90
3406;DHT22;10008;48.682;9.016;2023-02-18T10:01:40;12.70;99.90
3406;DHT22;10008;48.682;9.016;2023-02-18T10:04:33;12.60;99.90
3406;DHT22;10008;48.682;9.016;2023-02-18T10:07:01;12.50;99.90
3406;DHT22;10008;48.682;9.016;2023-02-18T10:09:34;12.40;99.90
3406;DHT22;10008;48.682;9.016;2023-02-18T10:12:17;12.50;99.90
3406;DHT22;10008;48.682;9.016;2023-02-18T10:14:50;12.50;99.90
3406;DHT22;10008;48.682;9.016;2023-02-18T10:17:17;12.50;99.90
3406;DHT22;10008;48.682;9.016;2023-02-18T10:19:46;12.50;99.90
3406;DHT22;10008;48.682;9.016;2023-02-18T10:22:14;12.40;99.90
3406;DHT22;10008;48.682;9.016;2023-02-18T10:25:07;12.40;99.90
3406;DHT22;10008;48.682;9.016;2023-02-18T10:27:36;12.50;99.90
3406;DHT22;10008;48.682;9.016;2023-02-18T10:30:23;12.40;99.90
3406;DHT22;10008;48.682;9.016;2023-02-18T10:32:57;12.40;99.90
3406;DHT22;10008;48.682;9.016;2023-02-18T10:41:56;12.30;99.90
3406;DHT22;10008;48.682;9.016;2023-02-18T10:52:15;12.30;99.90
3406;DHT22;10008;48.682;9.016;2023-02-18T10:57:21;12.40;99.90
3406;DHT22;10008;48.682;9.016;2023-02-18T11:00:03;12.50;99.90
3406;DHT22;10008;48.682;9.016;2023-02-18T11:02:37;12.40;99.90
3406;DHT22;10008;48.682;9.016;2023-02-18T11:05:23;12.40;99.90
3406;DHT22;10008;48.682;9.016;2023-02-18T11:07:52;12.50;99.90
3406;DHT22;10008;48.682;9.016;2023-02-18T11:10:28;12.60;99.90
3406;DHT22;10008;48.682;9.016;2023-02-18T11:12:56;12.60;99.90
3406;DHT22;10008;48.682;9.016;2023-02-18T11:15:25;12.60;99.90
3406;DHT22;10008;48.682;9.016;2023-02-18T11:17:54;12.60;99.90
3406;DHT22;10008;48.682;9.016;2023-02-18T11:20:33;12.60;99.90
3406;DHT22;10008;48.682;9.016;2023-02-18T11:25:36;12.50;99.90
3406;DHT22;10008;48.682;9.016;2023-02-18T11:28:34;12.60;99.90
3406;DHT22;10008;48.682;9.016;2023-02-18T11:31:04;12.50;99.90
3406;DHT22;10008;48.682;9.016;2023-02-18T11:33:39;12.50;99.90
3406;DHT22;10008;48.682;9.016;2023-02-18T11:41:42;12.80;99.90
3406;DHT22;10008;48.682;9.016;2023-02-18T11:47:27;12.90;99.90
3406;DHT22;10008;48.682;9.016;2023-02-18T11:50:16;13.00;99.90
3406;DHT22;10008;48.682;9.016;2023-02-18T11:52:47;13.00;99.90
3406;DHT22;10008;48.682;9.016;2023-02-18T11:57:54;13.10;99.90
3406;DHT22;10008;48.682;9.016;2023-02-18T12:03:03;13.10;99.90
3406;DHT22;10008;48.682;9.016;2023-02-18T12:05:32;13.10;99.90
3406;DHT22;10008;48.682;9.016;2023-02-18T12:08:04;13.10;99.90
3406;DHT22;10008;48.682;9.016;2023-02-18T12:10:37;13.10;99.90
3406;DHT22;10008;48.682;9.016;2023-02-18T12:16:13;13.10;99.90
3406;DHT22;10008;48.682;9.016;2023-02-18T12:22:15;13.00;99.90
3406;DHT22;10008;48.682;9.016;2023-02-18T12:27:28;12.90;99.90
3406;DHT22;10008;48.682;9.016;2023-02-18T12:33:18;12.90;99.90
3406;DHT22;10008;48.682;9.016;2023-02-18T13:00:42;13.40;99.90
3406;DHT22;10008;48.682;9.016;2023-02-18T13:16:44;13.30;99.90
3406;DHT22;10008;48.682;9.016;2023-02-18T13:21:50;13.40;99.90
3406;DHT22;10008;48.682;9.016;2023-02-18T13:24:47;13.50;99.90
3406;DHT22;10008;48.682;9.016;2023-02-18T13:32:55;13.40;99.90
3406;DHT22;10008;48.682;9.016;2023-02-18T13:38:57;13.40;99.90
3406;DHT22;10008;48.682;9.016;2023-02-18T13:41:25;13.40;99.90
3406;DHT22;10008;48.682;9.016;2023-02-18T13:43:52;13.40;99.90
3406;DHT22;10008;48.682;9.016;2023-02-18T13:46:23;13.40;99.90
3406;DHT22;10008;48.682;9.016;2023-02-18T13:48:53;13.30;99.90
3406;DHT22;10008;48.682;9.016;2023-02-18T13:56:59;13.30;99.90
3406;DHT22;10008;48.682;9.016;2023-02-18T14:09:56;13.40;99.90
3406;DHT22;10008;48.682;9.016;2023-02-18T14:14:51;13.70;99.90
3406;DHT22;10008;48.682;9.016;2023-02-18T14:20:04;13.60;99.90
3406;DHT22;10008;48.682;9.016;2023-02-18T14:22:51;13.40;99.90
3406;DHT22;10008;48.682;9.016;2023-02-18T14:27:52;13.40;99.90
3406;DHT22;10008;48.682;9.016;2023-02-18T14:32:54;13.50;99.90
3406;DHT22;10008;48.682;9.016;2023-02-18T14:35:39;13.50;99.90
3406;DHT22;10008;48.682;9.016;2023-02-18T14:38:35;13.40;99.90
3406;DHT22;10008;48.682;9.016;2023-02-18T14:49:36;13.60;99.90
3406;DHT22;10008;48.682;9.016;2023-02-18T14:52:02;13.70;99.90
3406;DHT22;10008;48.682;9.016;2023-02-18T14:54:30;13.40;99.90
3406;DHT22;10008;48.682;9.016;2023-02-18T14:57:03;13.30;99.90
3406;DHT22;10008;48.682;9.016;2023-02-18T14:59:35;13.30;99.90
3406;DHT22;10008;48.682;9.016;2023-02-18T15:02:02;13.40;99.90
3406;DHT22;10008;48.682;9.016;2023-02-18T15:04:28;13.40;99.90
3406;DHT22;10008;48.682;9.016;2023-02-18T15:07:01;13.30;99.90
3406;DHT22;10008;48.682;9.016;2023-02-18T15:09:27;13.30;99.90
3406;DHT22;10008;48.682;9.016;2023-02-18T15:12:05;13.30;99.90
3406;DHT22;10008;48.682;9.016;2023-02-18T15:14:35;13.30;99.90
3406;DHT22;10008;48.682;9.016;2023-02-18T15:17:02;13.40;99.90
3406;DHT22;10008;48.682;9.016;2023-02-18T15:19:37;13.40;99.90
3406;DHT22;10008;48.682;9.016;2023-02-18T15:22:04;13.40;99.90
3406;DHT22;10008;48.682;9.016;2023-02-18T15:24:36;13.30;99.90
3406;DHT22;10008;48.682;9.016;2023-02-18T15:27:17;13.20;99.90
3406;DHT22;10008;48.682;9.016;2023-02-18T15:29:43;13.20;99.90
3406;DHT22;10008;48.682;9.016;2023-02-18T15:34:44;13.30;99.90
3406;DHT22;10008;48.682;9.016;2023-02-18T15:37:12;13.30;99.90
3406;DHT22;10008;48.682;9.016;2023-02-18T15:39:39;13.40;99.90
3406;DHT22;10008;48.682;9.016;2023-02-18T15:42:25;13.40;99.90
3406;DHT22;10008;48.682;9.016;2023-02-18T15:45:08;13.20;99.90
3406;DHT22;10008;48.682;9.016;2023-02-18T15:47:43;13.20;99.90
3406;DHT22;10008;48.682;9.016;2023-02-18T15:50:17;13.20;99.90
3406;DHT22;10008;48.682;9.016;2023-02-18T15:52:44;13.10;99.90
3406;DHT22;10008;48.682;9.016;2023-02-18T15:55:37;13.10;99.90
3406;DHT22;10008;48.682;9.016;2023-02-18T15:58:16;13.00;99.90
3406;DHT22;10008;48.682;9.016;2023-02-18T16:00:50;13.00;99.90
3406;DHT22;10008;48.682;9.016;2023-02-18T16:03:22;13.00;99.90
3406;DHT22;10008;48.682;9.016;2023-02-18T16:05:49;12.90;99.90
3406;DHT22;10008;48.682;9.016;2023-02-18T16:08:26;12.90;99.90
3406;DHT22;10008;48.682;9.016;2023-02-18T16:10:59;12.90;99.90
3406;DHT22;10008;48.682;9.016;2023-02-18T16:13:26;12.80;99.90
3406;DHT22;10008;48.682;9.016;2023-02-18T16:15:54;12.20;99.90
3406;DHT22;10008;48.682;9.016;2023-02-18T16:21:03;12.70;99.90
3406;DHT22;10008;48.682;9.016;2023-02-18T16:23:41;12.60;99.90
3406;DHT22;10008;48.682;9.016;2023-02-18T16:26:31;12.60;99.90
3406;DHT22;10008;48.682;9.016;2023-02-18T16:29:22;12.50;99.90
3406;DHT22;10008;48.682;9.016;2023-02-18T16:31:45;12.50;99.90
3406;DHT22;10008;48.682;9.016;2023-02-18T16:34:11;12.50;99.90
3406;DHT22;10008;48.682;9.016;2023-02-18T16:36:38;12.50;99.90
3406;DHT22;10008;48.682;9.016;2023-02-18T16:39:24;12.40;99.90
3406;DHT22;10008;48.682;9.016;2023-02-18T16:41:50;12.40;99.90
3406;DHT22;10008;48.682;9.016;2023-02-18T16:44:15;12.40;99.90
3406;DHT22;10008;48.682;9.016;2023-02-18T16:46:41;12.30;99.90
3406;DHT22;10008;48.682;9.016;2023-02-18T16:49:11;12.30;99.90
3406;DHT22;10008;48.682;9.016;2023-02-18T16:51:39;12.30;99.90
3406;DHT22;10008;48.682;9.016;2023-02-18T16:54:10;12.30;99.90
3406;DHT22;10008;48.682;9.016;2023-02-18T16:56:36;12.20;99.90
3406;DHT22;10008;48.682;9.016;2023-02-18T16:59:03;12.20;99.90
3406;DHT22;10008;48.682;9.016;2023-02-18T17:01:31;12.10;99.90
3406;DHT22;10008;48.682;9.016;2023-02-18T17:03:59;12.10;99.90
3406;DHT22;10008;48.682;9.016;2023-02-18T17:06:26;12.10;99.90
3406;DHT22;10008;48.682;9.016;2023-02-18T17:08:52;12.10;99.90
3406;DHT22;10008;48.682;9.016;2023-02-18T17:11:27;12.10;99.90
3406;DHT22;10008;48.682;9.016;2023-02-18T17:13:54;12.10;99.90
3406;DHT22;10008;48.682;9.016;2023-02-18T17:16:22;12.00;99.90
3406;DHT22;10008;48.682;9.016;2023-02-18T17:18:48;12.00;99.90
3406;DHT22;10008;48.682;9.016;2023-02-18T17:21:18;12.00;99.90
3406;DHT22;10008;48.682;9.016;2023-02-18T17:23:44;11.90;99.90
3406;DHT22;10008;48.682;9.016;2023-02-18T17:28:38;11.90;99.90
3406;DHT22;10008;48.682;9.016;2023-02-18T17:31:04;11.90;99.90
3406;DHT22;10008;48.682;9.016;2023-02-18T17:33:30;11.90;99.90
3406;DHT22;10008;48.682;9.016;2023-02-18T17:35:56;11.90;99.90
3406;DHT22;10008;48.682;9.016;2023-02-18T17:38:22;11.90;99.90
3406;DHT22;10008;48.682;9.016;2023-02-18T17:40:48;11.90;99.90
3406;DHT22;10008;48.682;9.016;2023-02-18T17:43:16;11.90;99.90
3406;DHT22;10008;48.682;9.016;2023-02-18T17:45:53;11.90;99.90
3406;DHT22;10008;48.682;9.016;2023-02-18T17:48:19;11.90;99.90
3406;DHT22;10008;48.682;9.016;2023-02-18T17:50:45;11.90;99.90
3406;DHT22;10008;48.682;9.016;2023-02-18T17:53:12;12.00;99.90
3406;DHT22;10008;48.682;9.016;2023-02-18T17:55:39;11.90;99.90
3406;DHT22;10008;48.682;9.016;2023-02-18T17:58:05;11.90;99.90
3406;DHT22;10008;48.682;9.016;2023-02-18T18:00:37;11.90;99.90
3406;DHT22;10008;48.682;9.016;2023-02-18T18:03:04;11.80;99.90
3406;DHT22;10008;48.682;9.016;2023-02-18T18:05:32;11.80;99.90
3406;DHT22;10008;48.682;9.016;2023-02-18T18:07:59;11.90;99.90
3406;DHT22;10008;48.682;9.016;2023-02-18T18:10:27;11.80;99.90
3406;DHT22;10008;48.682;9.016;2023-02-18T18:13:06;11.80;99.90
3406;DHT22;10008;48.682;9.016;2023-02-18T18:15:36;11.90;99.90
3406;DHT22;10008;48.682;9.016;2023-02-18T18:18:03;11.80;99.90
3406;DHT22;10008;48.682;9.016;2023-02-18T18:20:31;11.80;99.90
3406;DHT22;10008;48.682;9.016;2023-02-18T18:22:59;11.80;99.90
3406;DHT22;10008;48.682;9.016;2023-02-18T18:25:36;11.80;99.90
3406;DHT22;10008;48.682;9.016;2023-02-18T18:28:03;11.80;99.90
3406;DHT22;10008;48.682;9.016;2023-02-18T18:30:31;11.80;99.90
3406;DHT22;10008;48.682;9.016;2023-02-18T18:32:57;11.80;99.90
3406;DHT22;10008;48.682;9.016;2023-02-18T18:35:30;11.80;99.90
3406;DHT22;10008;48.682;9.016;2023-02-18T18:37:56;11.80;99.90
3406;DHT22;10008;48.682;9.016;2023-02-18T18:40:24;11.80;99.90
3406;DHT22;10008;48.682;9.016;2023-02-18T18:42:52;11.80;99.90
3406;DHT22;10008;48.682;9.016;2023-02-18T18:45:24;11.70;99.90
3406;DHT22;10008;48.682;9.016;2023-02-18T18:47:51;11.70;99.90
3406;DHT22;10008;48.682;9.016;2023-02-18T18:50:18;11.80;99.90
3406;DHT22;10008;48.682;9.016;2023-02-18T18:52:45;11.70;99.90
3406;DHT22;10008;48.682;9.016;2023-02-18T18:55:32;11.70;99.90